createdAt,value
2023-02-06T00:01:47.785Z,3.23
2023-02-06T00:04:15.597Z,3.16
2023-02-06T00:06:42.839Z,3.22
2023-02-06T00:09:10.257Z,3.11
2023-02-06T00:11:37.449Z,3.06
2023-02-06T00:14:04.331Z,3.02
2023-02-06T00:16:33.308Z,3.06
2023-02-06T00:19:02.002Z,3.07
2023-02-06T00:21:30.259Z,3.24
2023-02-06T00:24:00.702Z,3.12
2023-02-06T00:26:27.610Z,2.89
2023-02-06T00:28:57.388Z,2.87
2023-02-06T00:31:24.639Z,2.72
2023-02-06T00:33:51.412Z,2.59
2023-02-06T00:36:19.027Z,2.62
2023-02-06T00:38:45.858Z,2.77
2023-02-06T00:41:13.924Z,2.91
2023-02-06T00:43:43.651Z,2.83
2023-02-06T00:46:11.521Z,2.77
2023-02-06T00:48:42.205Z,2.56
2023-02-06T00:51:09.088Z,2.47
2023-02-06T00:53:37.151Z,2.52
2023-02-06T00:56:05.442Z,2.33
2023-02-06T00:58:33.840Z,2.31
2023-02-06T01:01:00.703Z,2.50
2023-02-06T01:03:27.716Z,2.68
2023-02-06T01:05:54.572Z,2.57
2023-02-06T01:08:23.102Z,2.34
2023-02-06T01:10:51.314Z,2.51
2023-02-06T01:13:19.510Z,2.65
2023-02-06T01:15:46.452Z,2.78
2023-02-06T01:18:13.917Z,2.67
2023-02-06T01:20:41.230Z,2.50
2023-02-06T01:23:11.199Z,2.36
2023-02-06T01:25:38.316Z,2.07
2023-02-06T01:28:05.100Z,2.03
2023-02-06T01:30:32.002Z,2.42
2023-02-06T01:33:00.550Z,2.53
2023-02-06T01:35:29.658Z,2.53
2023-02-06T01:37:56.766Z,2.58
2023-02-06T01:40:25.397Z,2.45
2023-02-06T01:42:54.312Z,2.55
2023-02-06T01:45:41.151Z,2.61
2023-02-06T01:48:15.717Z,2.59
2023-02-06T01:50:46.586Z,2.49
2023-02-06T01:53:15.234Z,2.31
2023-02-06T01:55:43.688Z,2.35
2023-02-06T01:58:12.271Z,2.30
2023-02-06T02:00:41.329Z,2.25
2023-02-06T02:03:08.480Z,2.48
2023-02-06T02:05:36.045Z,2.44
2023-02-06T02:08:26.149Z,2.53
2023-02-06T02:10:53.651Z,2.61
2023-02-06T02:13:20.402Z,2.65
2023-02-06T02:16:03.362Z,2.53
2023-02-06T02:18:42.567Z,2.69
2023-02-06T02:21:32.009Z,2.48
2023-02-06T02:24:18.236Z,2.29
2023-02-06T02:27:09.205Z,2.05
2023-02-06T02:29:47.130Z,2.33
2023-02-06T02:32:26.745Z,2.30
2023-02-06T02:35:48.686Z,2.45
2023-02-06T02:38:24.494Z,2.25
2023-02-06T02:40:57.440Z,2.24
2023-02-06T02:43:55.554Z,2.49
2023-02-06T02:46:36.137Z,2.21
2023-02-06T02:49:07.650Z,2.16
2023-02-06T02:51:36.743Z,2.27
2023-02-06T02:54:03.799Z,2.38
2023-02-06T02:56:34.958Z,2.47
2023-02-06T02:59:11.825Z,2.60
2023-02-06T03:01:43.802Z,2.31
2023-02-06T03:04:18.256Z,2.22
2023-02-06T03:07:22.922Z,2.37
2023-02-06T03:10:09.514Z,2.26
2023-02-06T03:12:45.575Z,2.21
2023-02-06T03:15:34.305Z,1.94
2023-02-06T03:18:07.256Z,1.91
2023-02-06T03:20:37.125Z,2.11
2023-02-06T03:23:04.718Z,2.28
2023-02-06T03:25:36.861Z,2.34
2023-02-06T03:28:05.510Z,2.34
2023-02-06T03:30:33.151Z,2.20
2023-02-06T03:33:04.096Z,2.13
2023-02-06T03:35:31.375Z,2.06
2023-02-06T03:37:58.286Z,2.04
2023-02-06T03:40:26.954Z,1.92
2023-02-06T03:42:56.856Z,1.98
2023-02-06T03:45:28.309Z,2.19
2023-02-06T03:47:57.587Z,2.22
2023-02-06T03:50:25.778Z,2.33
2023-02-06T03:52:54.173Z,2.39
2023-02-06T03:55:23.031Z,2.39
2023-02-06T03:57:56.648Z,2.51
2023-02-06T04:00:23.626Z,2.40
2023-02-06T04:02:51.651Z,2.29
2023-02-06T04:05:19.175Z,2.40
2023-02-06T04:07:47.243Z,2.45
2023-02-06T04:10:14.216Z,2.67
2023-02-06T04:12:41.138Z,2.92
2023-02-06T04:15:08.392Z,3.25
2023-02-06T04:17:49.623Z,3.47
2023-02-06T04:20:21.934Z,3.59
2023-02-06T04:22:48.714Z,3.63
2023-02-06T04:25:15.581Z,3.26
2023-02-06T04:27:42.335Z,2.87
2023-02-06T04:30:10.040Z,2.35
2023-02-06T04:32:36.879Z,2.29
2023-02-06T04:35:03.902Z,2.27
2023-02-06T04:37:30.731Z,2.18
2023-02-06T04:39:57.449Z,2.26
2023-02-06T04:42:24.208Z,2.26
2023-02-06T04:44:50.965Z,2.30
2023-02-06T04:47:17.741Z,2.20
2023-02-06T04:49:44.524Z,2.18
2023-02-06T04:52:11.275Z,2.40
2023-02-06T04:54:38.083Z,2.34
2023-02-06T04:57:04.814Z,2.35
2023-02-06T04:59:31.632Z,2.62
2023-02-06T05:01:58.341Z,3.03
2023-02-06T05:04:25.230Z,3.19
2023-02-06T05:06:52.002Z,3.22
2023-02-06T05:09:18.741Z,3.16
2023-02-06T05:11:45.517Z,3.20
2023-02-06T05:14:12.265Z,3.34
2023-02-06T05:16:39.016Z,3.32
2023-02-06T05:19:05.812Z,3.21
2023-02-06T05:21:32.628Z,3.18
2023-02-06T05:23:59.438Z,3.38
2023-02-06T05:26:26.182Z,3.51
2023-02-06T05:28:53.212Z,3.51
2023-02-06T05:31:20.435Z,3.39
2023-02-06T05:33:52.591Z,3.34
2023-02-06T05:36:20.066Z,3.40
2023-02-06T05:38:47.518Z,3.59
2023-02-06T05:41:15.258Z,3.67
2023-02-06T05:43:42.026Z,3.48
2023-02-06T05:46:09.653Z,3.17
2023-02-06T05:48:36.463Z,2.96
2023-02-06T05:51:03.803Z,2.95
2023-02-06T05:53:30.738Z,3.13
2023-02-06T05:55:57.860Z,3.35
2023-02-06T05:58:24.821Z,3.56
2023-02-06T06:00:51.759Z,3.62
2023-02-06T06:03:19.228Z,3.66
2023-02-06T06:05:46.117Z,3.71
2023-02-06T06:08:12.928Z,3.79
2023-02-06T06:10:39.893Z,3.75
2023-02-06T06:13:06.636Z,3.52
2023-02-06T06:15:33.457Z,3.51
2023-02-06T06:18:00.240Z,3.57
2023-02-06T06:20:27.489Z,3.73
2023-02-06T06:22:54.324Z,3.78
2023-02-06T06:25:21.205Z,3.80
2023-02-06T06:27:48.075Z,3.96
2023-02-06T06:30:15.029Z,4.03
2023-02-06T06:32:41.815Z,4.05
2023-02-06T06:35:09.142Z,3.97
2023-02-06T06:37:36.096Z,4.07
2023-02-06T06:40:02.913Z,4.18
2023-02-06T06:42:29.726Z,4.36
2023-02-06T06:44:56.567Z,4.53
2023-02-06T06:47:23.332Z,4.64
2023-02-06T06:49:50.311Z,4.71
2023-02-06T06:52:24.883Z,4.70
2023-02-06T06:54:53.169Z,4.70
2023-02-06T06:57:21.286Z,4.63
2023-02-06T06:59:48.370Z,4.60
2023-02-06T07:02:15.374Z,4.63
2023-02-06T07:04:42.524Z,4.58
2023-02-06T07:07:09.313Z,4.58
2023-02-06T07:09:36.225Z,4.56
2023-02-06T07:12:03.237Z,4.59
2023-02-06T07:14:30.032Z,4.62
2023-02-06T07:16:57.080Z,4.65
2023-02-06T07:19:23.905Z,4.71
2023-02-06T07:21:50.597Z,4.75
2023-02-06T07:24:17.515Z,4.76
2023-02-06T07:26:44.797Z,4.73
2023-02-06T07:29:11.731Z,4.65
2023-02-06T07:31:38.527Z,4.53
2023-02-06T07:34:05.289Z,4.67
2023-02-06T07:36:32.102Z,4.49
2023-02-06T07:38:58.991Z,4.31
2023-02-06T07:41:25.773Z,3.91
2023-02-06T07:43:54.299Z,3.73
2023-02-06T07:46:21.239Z,3.48
2023-02-06T07:48:48.217Z,3.34
2023-02-06T07:51:15.004Z,3.40
2023-02-06T07:53:41.844Z,3.33
2023-02-06T07:56:14.358Z,3.35
2023-02-06T07:58:41.495Z,3.22
2023-02-06T08:01:08.628Z,3.15
2023-02-06T08:03:35.817Z,3.12
2023-02-06T08:06:08.363Z,2.90
2023-02-06T08:08:35.276Z,3.03
2023-02-06T08:11:06.045Z,3.10
2023-02-06T08:13:33.886Z,3.11
2023-02-06T08:16:06.728Z,3.14
2023-02-06T08:18:33.625Z,3.11
2023-02-06T08:21:02.544Z,3.03
2023-02-06T08:23:29.394Z,2.89
2023-02-06T08:26:22.469Z,2.89
2023-02-06T08:28:50.442Z,2.87
2023-02-06T08:31:19.198Z,2.78
2023-02-06T08:33:46.730Z,2.80
2023-02-06T08:36:14.241Z,2.92
2023-02-06T08:38:41.522Z,3.01
2023-02-06T08:41:38.892Z,3.02
2023-02-06T08:44:11.694Z,3.10
2023-02-06T08:46:39.028Z,2.96
2023-02-06T08:49:08.066Z,3.05
2023-02-06T08:51:35.737Z,3.24
2023-02-06T08:54:05.096Z,3.44
2023-02-06T08:56:32.770Z,3.37
2023-02-06T08:58:59.912Z,3.66
2023-02-06T09:01:27.642Z,3.76
2023-02-06T09:03:58.180Z,3.45
2023-02-06T09:06:25.597Z,3.51
2023-02-06T09:08:53.521Z,3.70
2023-02-06T09:11:21.665Z,3.78
2023-02-06T09:13:49.426Z,3.95
2023-02-06T09:16:18.478Z,3.92
2023-02-06T09:18:45.551Z,3.99
2023-02-06T09:21:14.724Z,4.14
2023-02-06T09:23:44.277Z,4.25
2023-02-06T09:26:12.711Z,4.28
2023-02-06T09:28:39.682Z,4.28
2023-02-06T09:31:10.526Z,4.30
2023-02-06T09:33:37.655Z,4.36
2023-02-06T09:36:16.157Z,4.40
2023-02-06T09:38:45.820Z,4.49
2023-02-06T09:41:17.997Z,4.62
2023-02-06T09:44:05.701Z,4.67
2023-02-06T09:46:35.830Z,4.75
2023-02-06T09:49:18.867Z,4.75
2023-02-06T09:52:22.586Z,4.91
2023-02-06T09:55:01.374Z,4.97
2023-02-06T09:58:19.389Z,5.06
2023-02-06T10:00:53.869Z,5.14
2023-02-06T10:03:26.031Z,5.25
2023-02-06T10:06:02.911Z,5.36
2023-02-06T10:08:36.328Z,5.44
2023-02-06T10:11:10.391Z,5.51
2023-02-06T10:13:42.825Z,5.52
2023-02-06T10:16:39.769Z,5.55
2023-02-06T10:19:35.856Z,5.49
2023-02-06T10:22:07.059Z,5.49
2023-02-06T10:24:42.419Z,5.48
2023-02-06T10:27:12.663Z,5.42
2023-02-06T10:29:41.004Z,5.43
2023-02-06T10:32:17.002Z,5.50
2023-02-06T10:35:09.929Z,5.60
2023-02-06T10:38:07.733Z,5.66
2023-02-06T10:40:42.956Z,5.66
2023-02-06T10:43:40.497Z,5.73
2023-02-06T10:46:28.437Z,5.76
2023-02-06T10:49:06.595Z,5.83
2023-02-06T10:51:34.913Z,5.84
2023-02-06T10:54:04.281Z,5.77
2023-02-06T10:56:36.269Z,5.83
2023-02-06T10:59:13.197Z,5.85
2023-02-06T11:01:41.072Z,5.92
2023-02-06T11:04:17.978Z,5.92
2023-02-06T11:06:46.917Z,5.93
2023-02-06T11:09:14.744Z,5.97
2023-02-06T11:11:48.494Z,6.05
2023-02-06T11:14:25.375Z,6.14
2023-02-06T11:16:52.887Z,6.23
2023-02-06T11:19:36.391Z,6.32
2023-02-06T11:22:14.851Z,6.37
2023-02-06T11:25:00.349Z,6.40
2023-02-06T11:27:27.654Z,6.40
2023-02-06T11:29:54.607Z,6.46
2023-02-06T11:32:36.122Z,6.60
2023-02-06T11:35:33.930Z,6.67
2023-02-06T11:38:07.396Z,6.76
2023-02-06T11:40:34.929Z,6.82
2023-02-06T11:43:30.337Z,6.91
2023-02-06T11:46:20.446Z,6.98
2023-02-06T11:48:51.135Z,7.06
2023-02-06T11:51:18.024Z,7.11
2023-02-06T11:53:59.428Z,7.26
2023-02-06T11:56:26.822Z,7.27
2023-02-06T11:59:02.460Z,7.34
2023-02-06T12:01:39.050Z,7.61
2023-02-06T12:04:16.260Z,7.88
2023-02-06T12:06:43.498Z,8.00
2023-02-06T12:09:12.677Z,8.14
2023-02-06T12:11:57.873Z,8.21
2023-02-06T12:14:44.537Z,8.26
2023-02-06T12:17:25.876Z,8.33
2023-02-06T12:20:00.476Z,8.39
2023-02-06T12:22:27.412Z,8.50
2023-02-06T12:24:55.813Z,8.55
2023-02-06T12:27:42.790Z,8.61
2023-02-06T12:30:57.377Z,8.65
2023-02-06T12:33:34.898Z,8.74
2023-02-06T12:36:17.533Z,8.77
2023-02-06T12:39:01.838Z,8.78
2023-02-06T12:41:45.343Z,8.87
2023-02-06T12:44:28.022Z,9.00
2023-02-06T12:47:09.813Z,9.18
2023-02-06T12:50:14.339Z,9.42
2023-02-06T12:52:58.325Z,9.62
2023-02-06T12:55:31.145Z,9.91
2023-02-06T12:57:58.234Z,10.06
2023-02-06T13:00:49.416Z,10.19
2023-02-06T13:03:35.193Z,10.46
2023-02-06T13:06:33.853Z,10.39
2023-02-06T13:09:03.952Z,10.59
2023-02-06T13:11:38.197Z,10.32
2023-02-06T13:14:17.760Z,10.30
2023-02-06T13:16:46.258Z,9.89
2023-02-06T13:19:22.628Z,10.36
2023-02-06T13:22:15.694Z,10.23
2023-02-06T13:24:48.136Z,10.64
2023-02-06T13:27:16.706Z,10.88
2023-02-06T13:29:48.500Z,10.74
2023-02-06T13:32:15.514Z,10.65
2023-02-06T13:34:46.493Z,10.72
2023-02-06T13:37:28.153Z,11.14
2023-02-06T13:40:26.685Z,11.32
2023-02-06T13:43:13.833Z,11.58
2023-02-06T13:45:51.772Z,11.72
2023-02-06T13:48:52.475Z,11.77
2023-02-06T13:51:30.269Z,11.57
2023-02-06T13:54:03.177Z,11.40
2023-02-06T13:57:13.978Z,11.66
2023-02-06T13:59:47.129Z,11.41
2023-02-06T14:02:23.145Z,11.79
2023-02-06T14:04:50.451Z,11.94
2023-02-06T14:07:28.714Z,11.90
2023-02-06T14:10:05.276Z,12.12
2023-02-06T14:12:50.562Z,12.28
2023-02-06T14:15:32.354Z,12.26
2023-02-06T14:18:36.804Z,11.96
2023-02-06T14:21:12.784Z,12.08
2023-02-06T14:23:39.511Z,11.51
2023-02-06T14:26:34.194Z,11.72
2023-02-06T14:29:25.903Z,11.50
2023-02-06T14:32:01.687Z,11.65
2023-02-06T14:34:39.706Z,11.35
2023-02-06T14:37:21.294Z,11.50
2023-02-06T14:39:55.863Z,11.61
2023-02-06T14:42:33.507Z,12.00
2023-02-06T14:45:03.270Z,11.66
2023-02-06T14:47:41.041Z,11.55
2023-02-06T14:50:17.676Z,11.32
2023-02-06T14:52:45.935Z,10.94
2023-02-06T14:55:32.931Z,10.89
2023-02-06T14:58:00.375Z,10.83
2023-02-06T15:00:28.768Z,10.70
2023-02-06T15:03:17.035Z,10.54
2023-02-06T15:05:44.785Z,10.46
2023-02-06T15:08:20.779Z,10.45
2023-02-06T15:10:47.600Z,9.88
2023-02-06T15:13:21.995Z,9.66
2023-02-06T15:15:56.616Z,9.41
2023-02-06T15:18:23.715Z,9.34
2023-02-06T15:20:58.361Z,9.12
2023-02-06T15:23:28.043Z,9.04
2023-02-06T15:26:13.192Z,8.84
2023-02-06T15:28:41.252Z,8.66
2023-02-06T15:31:17.231Z,8.57
2023-02-06T15:33:49.160Z,8.48
2023-02-06T15:36:38.024Z,8.44
2023-02-06T15:39:07.712Z,8.20
2023-02-06T15:41:35.017Z,8.14
2023-02-06T15:44:04.437Z,8.07
2023-02-06T15:46:31.458Z,8.12
2023-02-06T15:48:58.474Z,8.01
2023-02-06T15:51:30.957Z,7.97
2023-02-06T15:54:18.454Z,7.94
2023-02-06T15:56:50.471Z,7.90
2023-02-06T15:59:24.203Z,7.88
2023-02-06T16:01:52.683Z,7.77
2023-02-06T16:04:29.163Z,7.77
2023-02-06T16:07:06.713Z,7.54
2023-02-06T16:09:57.915Z,7.52
2023-02-06T16:12:26.464Z,7.56
2023-02-06T16:15:03.588Z,7.40
2023-02-06T16:17:35.900Z,7.53
2023-02-06T16:20:05.365Z,7.45
2023-02-06T16:22:38.317Z,7.30
2023-02-06T16:25:25.943Z,7.41
2023-02-06T16:27:53.076Z,7.36
2023-02-06T16:30:38.048Z,7.38
2023-02-06T16:33:38.766Z,7.35
2023-02-06T16:36:06.292Z,7.30
2023-02-06T16:38:33.238Z,7.23
2023-02-06T16:41:00.357Z,7.23
2023-02-06T16:43:27.956Z,7.24
2023-02-06T16:45:54.838Z,7.17
2023-02-06T16:48:21.615Z,7.18
2023-02-06T16:50:48.826Z,7.16
2023-02-06T16:53:23.853Z,7.19
2023-02-06T16:55:51.135Z,7.09
2023-02-06T16:58:20.304Z,7.08
2023-02-06T17:00:48.085Z,7.07
2023-02-06T17:03:17.401Z,7.03
2023-02-06T17:05:45.909Z,6.99
2023-02-06T17:08:19.737Z,6.90
2023-02-06T17:10:47.020Z,7.10
2023-02-06T17:13:19.623Z,7.08
2023-02-06T17:15:47.374Z,6.99
2023-02-06T17:18:16.654Z,6.98
2023-02-06T17:20:45.960Z,7.07
2023-02-06T17:23:12.920Z,7.01
2023-02-06T17:25:41.169Z,6.96
2023-02-06T17:28:10.085Z,6.94
2023-02-06T17:30:38.135Z,6.89
2023-02-06T17:33:06.315Z,6.83
2023-02-06T17:35:36.565Z,6.91
2023-02-06T17:38:07.848Z,6.85
2023-02-06T17:40:36.766Z,6.81
2023-02-06T17:43:04.896Z,6.75
2023-02-06T17:45:32.001Z,6.77
2023-02-06T17:47:58.818Z,6.87
2023-02-06T17:50:27.168Z,6.74
2023-02-06T17:52:56.244Z,6.68
2023-02-06T17:55:23.699Z,6.70
2023-02-06T17:57:50.911Z,6.68
2023-02-06T18:00:19.726Z,6.72
2023-02-06T18:02:46.612Z,6.74
2023-02-06T18:05:13.542Z,6.63
2023-02-06T18:07:40.756Z,6.39
2023-02-06T18:10:08.680Z,6.35
2023-02-06T18:12:35.513Z,6.48
2023-02-06T18:15:02.816Z,6.43
2023-02-06T18:17:30.892Z,6.41
2023-02-06T18:19:57.705Z,6.38
2023-02-06T18:22:24.560Z,6.51
2023-02-06T18:24:51.478Z,6.55
2023-02-06T18:27:19.411Z,6.65
2023-02-06T18:29:50.221Z,6.52
2023-02-06T18:32:18.494Z,6.58
2023-02-06T18:34:45.751Z,6.67
2023-02-06T18:37:12.823Z,6.76
2023-02-06T18:39:39.915Z,6.76
2023-02-06T18:42:25.709Z,6.66
2023-02-06T18:44:52.489Z,6.65
2023-02-06T18:47:19.833Z,6.62
2023-02-06T18:49:46.938Z,6.72
2023-02-06T18:52:14.076Z,6.52
2023-02-06T18:54:41.140Z,6.51
2023-02-06T18:57:07.986Z,6.35
2023-02-06T18:59:35.156Z,6.36
2023-02-06T19:02:02.499Z,6.23
2023-02-06T19:04:29.662Z,6.07
2023-02-06T19:06:56.586Z,6.09
2023-02-06T19:09:23.510Z,6.13
2023-02-06T19:11:50.429Z,6.15
2023-02-06T19:14:19.869Z,6.08
2023-02-06T19:16:48.074Z,6.27
2023-02-06T19:19:15.153Z,6.02
2023-02-06T19:21:42.625Z,5.79
2023-02-06T19:24:12.518Z,5.87
2023-02-06T19:26:40.011Z,5.90
2023-02-06T19:29:07.464Z,6.13
2023-02-06T19:31:36.103Z,6.29
2023-02-06T19:34:02.962Z,6.39
2023-02-06T19:36:30.214Z,6.37
2023-02-06T19:38:59.834Z,6.25
2023-02-06T19:41:28.780Z,6.19
2023-02-06T19:43:56.731Z,6.17
2023-02-06T19:46:25.983Z,6.06
2023-02-06T19:48:53.917Z,6.19
2023-02-06T19:51:26.413Z,6.19
2023-02-06T19:53:54.911Z,6.25
2023-02-06T19:56:39.337Z,6.30
2023-02-06T19:59:18.152Z,6.29
2023-02-06T20:01:50.269Z,6.24
2023-02-06T20:04:18.153Z,6.29
2023-02-06T20:06:45.254Z,6.15
2023-02-06T20:09:14.154Z,6.13
2023-02-06T20:11:41.586Z,6.13
2023-02-06T20:14:08.820Z,6.18
2023-02-06T20:16:37.830Z,6.43
2023-02-06T20:19:10.357Z,6.37
2023-02-06T20:21:39.535Z,6.36
2023-02-06T20:24:08.854Z,6.56
2023-02-06T20:26:39.120Z,6.53
2023-02-06T20:29:07.746Z,6.51
2023-02-06T20:31:35.743Z,6.52
2023-02-06T20:34:03.180Z,6.49
2023-02-06T20:36:29.996Z,6.57
2023-02-06T20:38:58.762Z,6.53
2023-02-06T20:41:30.065Z,6.56
2023-02-06T20:43:58.320Z,6.47
2023-02-06T20:46:26.450Z,6.56
2023-02-06T20:48:58.250Z,6.53
2023-02-06T20:51:26.062Z,6.52
2023-02-06T20:53:53.138Z,6.59
2023-02-06T20:56:20.797Z,6.42
2023-02-06T20:58:49.409Z,6.40
2023-02-06T21:01:22.388Z,6.33
2023-02-06T21:03:50.184Z,6.17
2023-02-06T21:06:17.037Z,5.97
2023-02-06T21:08:46.045Z,6.02
2023-02-06T21:11:13.145Z,6.13
2023-02-06T21:13:40.607Z,6.23
2023-02-06T21:16:08.120Z,6.26
2023-02-06T21:18:34.927Z,6.26
2023-02-06T21:21:09.196Z,6.31
2023-02-06T21:23:37.314Z,6.22
2023-02-06T21:26:05.006Z,6.16
2023-02-06T21:28:33.331Z,6.12
2023-02-06T21:31:05.232Z,6.08
2023-02-06T21:33:32.206Z,6.02
2023-02-06T21:35:59.057Z,6.05
2023-02-06T21:38:25.927Z,6.04
2023-02-06T21:40:52.661Z,5.89
2023-02-06T21:43:19.494Z,6.01
2023-02-06T21:45:49.466Z,6.07
2023-02-06T21:48:16.242Z,6.04
2023-02-06T21:50:44.941Z,5.82
2023-02-06T21:53:11.940Z,5.84
2023-02-06T21:55:43.099Z,5.90
2023-02-06T21:58:10.634Z,5.83
2023-02-06T22:00:37.467Z,5.76
2023-02-06T22:03:04.306Z,5.79
2023-02-06T22:05:31.136Z,5.79
2023-02-06T22:07:58.963Z,5.61
2023-02-06T22:10:27.380Z,5.51
2023-02-06T22:12:55.441Z,5.56
2023-02-06T22:15:22.611Z,5.60
2023-02-06T22:17:49.577Z,5.56
2023-02-06T22:20:16.745Z,5.60
2023-02-06T22:22:45.253Z,5.58
2023-02-06T22:25:12.319Z,5.56
2023-02-06T22:27:40.372Z,5.57
2023-02-06T22:30:09.015Z,5.59
2023-02-06T22:32:37.669Z,5.60
2023-02-06T22:35:05.967Z,5.50
2023-02-06T22:37:34.004Z,5.63
2023-02-06T22:40:00.794Z,5.62
2023-02-06T22:42:27.565Z,5.63
2023-02-06T22:44:54.309Z,5.61
2023-02-06T22:47:21.124Z,5.53
2023-02-06T22:49:50.739Z,5.52
2023-02-06T22:52:36.038Z,5.52
2023-02-06T22:55:04.281Z,5.59
2023-02-06T22:57:31.101Z,5.56
2023-02-06T22:59:57.859Z,5.61
2023-02-06T23:02:24.664Z,5.58
2023-02-06T23:04:51.566Z,5.55
2023-02-06T23:07:18.274Z,5.61
2023-02-06T23:09:45.131Z,5.68
2023-02-06T23:12:13.731Z,5.61
2023-02-06T23:14:40.620Z,5.59
2023-02-06T23:17:07.422Z,5.49
2023-02-06T23:19:34.319Z,5.43
2023-02-06T23:22:01.134Z,5.30
2023-02-06T23:24:27.999Z,5.16
2023-02-06T23:26:55.242Z,5.14
2023-02-06T23:29:22.892Z,5.06
2023-02-06T23:31:50.407Z,5.10
2023-02-06T23:34:18.236Z,5.11
2023-02-06T23:36:45.096Z,5.07
2023-02-06T23:39:12.175Z,5.14
2023-02-06T23:41:39.442Z,5.20
2023-02-06T23:44:08.063Z,5.27
2023-02-06T23:46:36.476Z,5.42
2023-02-06T23:49:03.854Z,5.38
2023-02-06T23:51:31.816Z,5.52
2023-02-06T23:53:58.752Z,5.34
2023-02-06T23:56:29.283Z,5.26
2023-02-06T23:58:57.395Z,5.21
